sensor_id;sensor_type;location;lat;lon;timestamp;P1;durP1;ratioP1;P2;durP2;ratioP2
20776;SDS011;10548;47.504;8.248;2023-03-14T00:01:22;0.63;;;0.50;;
20776;SDS011;10548;47.504;8.248;2023-03-14T00:03:50;1.87;;;0.80;;
20776;SDS011;10548;47.504;8.248;2023-03-14T00:06:17;3.07;;;0.70;;
20776;SDS011;10548;47.504;8.248;2023-03-14T00:08:45;1.30;;;0.83;;
20776;SDS011;10548;47.504;8.248;2023-03-14T00:11:17;0.60;;;0.53;;
20776;SDS011;10548;47.504;8.248;2023-03-14T00:13:52;1.43;;;0.70;;
20776;SDS011;10548;47.504;8.248;2023-03-14T00:16:19;0.50;;;0.50;;
20776;SDS011;10548;47.504;8.248;2023-03-14T00:18:47;0.43;;;0.40;;
20776;SDS011;10548;47.504;8.248;2023-03-14T00:21:14;0.97;;;0.60;;
20776;SDS011;10548;47.504;8.248;2023-03-14T00:23:41;0.73;;;0.43;;
20776;SDS011;10548;47.504;8.248;2023-03-14T00:26:10;0.73;;;0.30;;
20776;SDS011;10548;47.504;8.248;2023-03-14T00:28:43;0.30;;;0.30;;
20776;SDS011;10548;47.504;8.248;2023-03-14T00:31:11;0.70;;;0.30;;
20776;SDS011;10548;47.504;8.248;2023-03-14T00:33:41;1.17;;;0.40;;
20776;SDS011;10548;47.504;8.248;2023-03-14T00:36:09;0.30;;;0.30;;
20776;SDS011;10548;47.504;8.248;2023-03-14T00:38:41;0.30;;;0.30;;
20776;SDS011;10548;47.504;8.248;2023-03-14T00:41:11;0.20;;;0.20;;
20776;SDS011;10548;47.504;8.248;2023-03-14T00:43:40;0.37;;;0.30;;
20776;SDS011;10548;47.504;8.248;2023-03-14T00:46:08;0.20;;;0.20;;
20776;SDS011;10548;47.504;8.248;2023-03-14T00:48:36;0.67;;;0.40;;
20776;SDS011;10548;47.504;8.248;2023-03-14T00:51:03;0.30;;;0.30;;
20776;SDS011;10548;47.504;8.248;2023-03-14T00:53:32;0.93;;;0.30;;
20776;SDS011;10548;47.504;8.248;2023-03-14T00:56:03;0.60;;;0.30;;
20776;SDS011;10548;47.504;8.248;2023-03-14T00:58:31;0.20;;;0.20;;
20776;SDS011;10548;47.504;8.248;2023-03-14T01:00:58;0.33;;;0.33;;
20776;SDS011;10548;47.504;8.248;2023-03-14T01:03:26;0.30;;;0.30;;
20776;SDS011;10548;47.504;8.248;2023-03-14T01:05:53;0.63;;;0.20;;
20776;SDS011;10548;47.504;8.248;2023-03-14T01:08:20;0.53;;;0.23;;
20776;SDS011;10548;47.504;8.248;2023-03-14T01:10:47;0.93;;;0.40;;
20776;SDS011;10548;47.504;8.248;2023-03-14T01:13:14;0.37;;;0.30;;
20776;SDS011;10548;47.504;8.248;2023-03-14T01:15:42;0.33;;;0.33;;
20776;SDS011;10548;47.504;8.248;2023-03-14T01:18:10;0.77;;;0.40;;
20776;SDS011;10548;47.504;8.248;2023-03-14T01:20:37;0.30;;;0.30;;
20776;SDS011;10548;47.504;8.248;2023-03-14T01:23:04;0.30;;;0.30;;
20776;SDS011;10548;47.504;8.248;2023-03-14T01:25:31;0.30;;;0.30;;
20776;SDS011;10548;47.504;8.248;2023-03-14T01:27:58;0.63;;;0.33;;
20776;SDS011;10548;47.504;8.248;2023-03-14T01:30:27;0.20;;;0.20;;
20776;SDS011;10548;47.504;8.248;2023-03-14T01:32:54;0.60;;;0.40;;
20776;SDS011;10548;47.504;8.248;2023-03-14T01:35:22;0.30;;;0.30;;
20776;SDS011;10548;47.504;8.248;2023-03-14T01:37:50;0.20;;;0.20;;
20776;SDS011;10548;47.504;8.248;2023-03-14T01:44:11;0.30;;;0.30;;
20776;SDS011;10548;47.504;8.248;2023-03-14T01:46:42;0.40;;;0.40;;
20776;SDS011;10548;47.504;8.248;2023-03-14T01:55:09;0.53;;;0.40;;
20776;SDS011;10548;47.504;8.248;2023-03-14T01:57:46;0.30;;;0.30;;
20776;SDS011;10548;47.504;8.248;2023-03-14T02:00:18;0.83;;;0.30;;
20776;SDS011;10548;47.504;8.248;2023-03-14T02:07:07;2.97;;;0.33;;
20776;SDS011;10548;47.504;8.248;2023-03-14T02:10:11;0.40;;;0.40;;
20776;SDS011;10548;47.504;8.248;2023-03-14T02:12:39;0.87;;;0.40;;
20776;SDS011;10548;47.504;8.248;2023-03-14T02:15:32;0.73;;;0.30;;
20776;SDS011;10548;47.504;8.248;2023-03-14T02:18:09;2.03;;;0.30;;
20776;SDS011;10548;47.504;8.248;2023-03-14T02:21:04;0.53;;;0.43;;
20776;SDS011;10548;47.504;8.248;2023-03-14T02:24:07;1.13;;;0.50;;
20776;SDS011;10548;47.504;8.248;2023-03-14T02:29:52;0.20;;;0.20;;
20776;SDS011;10548;47.504;8.248;2023-03-14T02:32:22;1.90;;;0.33;;
20776;SDS011;10548;47.504;8.248;2023-03-14T02:35:16;0.40;;;0.20;;
20776;SDS011;10548;47.504;8.248;2023-03-14T02:41:12;0.93;;;0.30;;
20776;SDS011;10548;47.504;8.248;2023-03-14T02:43:44;0.97;;;0.30;;
20776;SDS011;10548;47.504;8.248;2023-03-14T02:46:12;0.20;;;0.20;;
20776;SDS011;10548;47.504;8.248;2023-03-14T02:48:56;0.30;;;0.30;;
20776;SDS011;10548;47.504;8.248;2023-03-14T02:51:43;0.30;;;0.30;;
20776;SDS011;10548;47.504;8.248;2023-03-14T02:54:12;0.20;;;0.20;;
20776;SDS011;10548;47.504;8.248;2023-03-14T02:56:41;0.30;;;0.30;;
20776;SDS011;10548;47.504;8.248;2023-03-14T02:59:11;0.40;;;0.30;;
20776;SDS011;10548;47.504;8.248;2023-03-14T03:01:46;0.30;;;0.30;;
20776;SDS011;10548;47.504;8.248;2023-03-14T03:04:14;0.20;;;0.20;;
20776;SDS011;10548;47.504;8.248;2023-03-14T03:06:44;0.30;;;0.30;;
20776;SDS011;10548;47.504;8.248;2023-03-14T03:09:12;0.70;;;0.30;;
20776;SDS011;10548;47.504;8.248;2023-03-14T03:11:39;0.30;;;0.30;;
20776;SDS011;10548;47.504;8.248;2023-03-14T03:14:10;0.30;;;0.30;;
20776;SDS011;10548;47.504;8.248;2023-03-14T03:16:37;1.73;;;0.37;;
20776;SDS011;10548;47.504;8.248;2023-03-14T03:19:04;0.20;;;0.20;;
20776;SDS011;10548;47.504;8.248;2023-03-14T03:21:31;0.30;;;0.30;;
20776;SDS011;10548;47.504;8.248;2023-03-14T03:23:58;0.40;;;0.27;;
20776;SDS011;10548;47.504;8.248;2023-03-14T03:26:25;0.23;;;0.23;;
20776;SDS011;10548;47.504;8.248;2023-03-14T03:28:53;0.27;;;0.23;;
20776;SDS011;10548;47.504;8.248;2023-03-14T03:31:21;0.30;;;0.30;;
20776;SDS011;10548;47.504;8.248;2023-03-14T03:33:48;0.40;;;0.40;;
20776;SDS011;10548;47.504;8.248;2023-03-14T03:36:17;0.87;;;0.30;;
20776;SDS011;10548;47.504;8.248;2023-03-14T03:39:06;1.33;;;0.30;;
20776;SDS011;10548;47.504;8.248;2023-03-14T03:41:33;1.00;;;0.50;;
20776;SDS011;10548;47.504;8.248;2023-03-14T03:44:01;0.30;;;0.30;;
20776;SDS011;10548;47.504;8.248;2023-03-14T03:46:28;0.57;;;0.53;;
20776;SDS011;10548;47.504;8.248;2023-03-14T03:48:56;0.30;;;0.30;;
20776;SDS011;10548;47.504;8.248;2023-03-14T03:51:27;0.30;;;0.30;;
20776;SDS011;10548;47.504;8.248;2023-03-14T03:53:55;0.30;;;0.30;;
20776;SDS011;10548;47.504;8.248;2023-03-14T03:56:32;0.40;;;0.30;;
20776;SDS011;10548;47.504;8.248;2023-03-14T03:58:59;0.30;;;0.30;;
20776;SDS011;10548;47.504;8.248;2023-03-14T04:01:26;0.73;;;0.30;;
20776;SDS011;10548;47.504;8.248;2023-03-14T04:03:56;0.30;;;0.30;;
20776;SDS011;10548;47.504;8.248;2023-03-14T04:06:25;0.37;;;0.30;;
20776;SDS011;10548;47.504;8.248;2023-03-14T04:08:54;0.30;;;0.30;;
20776;SDS011;10548;47.504;8.248;2023-03-14T04:11:42;0.57;;;0.33;;
20776;SDS011;10548;47.504;8.248;2023-03-14T04:14:30;0.30;;;0.30;;
20776;SDS011;10548;47.504;8.248;2023-03-14T04:17:12;0.30;;;0.30;;
20776;SDS011;10548;47.504;8.248;2023-03-14T04:19:39;0.30;;;0.30;;
20776;SDS011;10548;47.504;8.248;2023-03-14T04:22:07;2.27;;;0.40;;
20776;SDS011;10548;47.504;8.248;2023-03-14T04:24:43;1.17;;;0.30;;
20776;SDS011;10548;47.504;8.248;2023-03-14T04:27:11;0.60;;;0.30;;
20776;SDS011;10548;47.504;8.248;2023-03-14T04:33:20;0.30;;;0.30;;
20776;SDS011;10548;47.504;8.248;2023-03-14T04:35:53;0.37;;;0.37;;
20776;SDS011;10548;47.504;8.248;2023-03-14T04:38:21;0.60;;;0.47;;
20776;SDS011;10548;47.504;8.248;2023-03-14T04:40:49;1.70;;;0.60;;
20776;SDS011;10548;47.504;8.248;2023-03-14T04:43:19;0.80;;;0.33;;
20776;SDS011;10548;47.504;8.248;2023-03-14T04:45:59;1.00;;;0.40;;
20776;SDS011;10548;47.504;8.248;2023-03-14T04:48:26;2.23;;;0.40;;
20776;SDS011;10548;47.504;8.248;2023-03-14T04:50:54;0.87;;;0.40;;
20776;SDS011;10548;47.504;8.248;2023-03-14T04:53:22;0.43;;;0.43;;
20776;SDS011;10548;47.504;8.248;2023-03-14T04:55:53;0.33;;;0.33;;
20776;SDS011;10548;47.504;8.248;2023-03-14T04:58:24;0.93;;;0.50;;
20776;SDS011;10548;47.504;8.248;2023-03-14T05:00:53;1.23;;;0.50;;
20776;SDS011;10548;47.504;8.248;2023-03-14T05:03:37;2.93;;;0.40;;
20776;SDS011;10548;47.504;8.248;2023-03-14T05:06:22;0.50;;;0.40;;
20776;SDS011;10548;47.504;8.248;2023-03-14T05:09:07;0.40;;;0.40;;
20776;SDS011;10548;47.504;8.248;2023-03-14T05:11:55;0.30;;;0.30;;
20776;SDS011;10548;47.504;8.248;2023-03-14T05:14:42;0.53;;;0.50;;
20776;SDS011;10548;47.504;8.248;2023-03-14T05:17:35;0.70;;;0.37;;
20776;SDS011;10548;47.504;8.248;2023-03-14T05:20:29;1.50;;;0.63;;
20776;SDS011;10548;47.504;8.248;2023-03-14T05:23:18;1.50;;;0.30;;
20776;SDS011;10548;47.504;8.248;2023-03-14T05:26:04;0.40;;;0.40;;
20776;SDS011;10548;47.504;8.248;2023-03-14T05:28:38;1.10;;;0.40;;
20776;SDS011;10548;47.504;8.248;2023-03-14T05:31:25;0.40;;;0.40;;
20776;SDS011;10548;47.504;8.248;2023-03-14T05:34:13;1.17;;;0.80;;
20776;SDS011;10548;47.504;8.248;2023-03-14T05:36:53;0.40;;;0.40;;
20776;SDS011;10548;47.504;8.248;2023-03-14T05:39:51;0.93;;;0.30;;
20776;SDS011;10548;47.504;8.248;2023-03-14T05:42:51;1.37;;;0.50;;
20776;SDS011;10548;47.504;8.248;2023-03-14T05:45:36;1.90;;;0.50;;
20776;SDS011;10548;47.504;8.248;2023-03-14T05:48:20;0.77;;;0.53;;
20776;SDS011;10548;47.504;8.248;2023-03-14T05:51:01;0.53;;;0.40;;
20776;SDS011;10548;47.504;8.248;2023-03-14T05:53:49;0.30;;;0.30;;
20776;SDS011;10548;47.504;8.248;2023-03-14T05:56:32;0.47;;;0.40;;
20776;SDS011;10548;47.504;8.248;2023-03-14T05:59:28;1.43;;;0.40;;
20776;SDS011;10548;47.504;8.248;2023-03-14T06:02:07;1.90;;;0.67;;
20776;SDS011;10548;47.504;8.248;2023-03-14T06:04:52;0.47;;;0.47;;
20776;SDS011;10548;47.504;8.248;2023-03-14T06:07:20;0.60;;;0.50;;
20776;SDS011;10548;47.504;8.248;2023-03-14T06:09:48;1.93;;;0.80;;
20776;SDS011;10548;47.504;8.248;2023-03-14T06:12:17;0.57;;;0.50;;
20776;SDS011;10548;47.504;8.248;2023-03-14T06:14:45;1.17;;;0.40;;
20776;SDS011;10548;47.504;8.248;2023-03-14T06:17:12;0.60;;;0.60;;
20776;SDS011;10548;47.504;8.248;2023-03-14T06:19:48;0.97;;;0.50;;
20776;SDS011;10548;47.504;8.248;2023-03-14T06:22:15;0.50;;;0.50;;
20776;SDS011;10548;47.504;8.248;2023-03-14T06:24:42;0.50;;;0.50;;
20776;SDS011;10548;47.504;8.248;2023-03-14T06:27:10;0.40;;;0.40;;
20776;SDS011;10548;47.504;8.248;2023-03-14T06:29:37;1.03;;;0.60;;
20776;SDS011;10548;47.504;8.248;2023-03-14T06:32:05;1.27;;;0.50;;
20776;SDS011;10548;47.504;8.248;2023-03-14T06:34:32;2.13;;;0.63;;
20776;SDS011;10548;47.504;8.248;2023-03-14T06:36:59;0.90;;;0.50;;
20776;SDS011;10548;47.504;8.248;2023-03-14T06:39:27;0.50;;;0.50;;
20776;SDS011;10548;47.504;8.248;2023-03-14T06:42:02;0.57;;;0.40;;
20776;SDS011;10548;47.504;8.248;2023-03-14T06:44:29;0.97;;;0.50;;
20776;SDS011;10548;47.504;8.248;2023-03-14T06:46:57;1.47;;;0.80;;
20776;SDS011;10548;47.504;8.248;2023-03-14T06:49:24;1.83;;;0.73;;
20776;SDS011;10548;47.504;8.248;2023-03-14T06:51:54;0.63;;;0.50;;
20776;SDS011;10548;47.504;8.248;2023-03-14T06:54:21;2.40;;;0.70;;
20776;SDS011;10548;47.504;8.248;2023-03-14T06:56:48;0.60;;;0.60;;
20776;SDS011;10548;47.504;8.248;2023-03-14T06:59:15;0.77;;;0.50;;
20776;SDS011;10548;47.504;8.248;2023-03-14T07:01:46;0.60;;;0.50;;
20776;SDS011;10548;47.504;8.248;2023-03-14T07:04:14;1.30;;;0.40;;
20776;SDS011;10548;47.504;8.248;2023-03-14T07:06:45;0.70;;;0.60;;
20776;SDS011;10548;47.504;8.248;2023-03-14T07:09:14;1.83;;;0.50;;
20776;SDS011;10548;47.504;8.248;2023-03-14T07:11:47;1.17;;;0.50;;
20776;SDS011;10548;47.504;8.248;2023-03-14T07:14:16;1.23;;;0.50;;
20776;SDS011;10548;47.504;8.248;2023-03-14T07:16:44;0.70;;;0.47;;
20776;SDS011;10548;47.504;8.248;2023-03-14T07:19:11;2.63;;;0.70;;
20776;SDS011;10548;47.504;8.248;2023-03-14T07:21:39;3.90;;;0.67;;
20776;SDS011;10548;47.504;8.248;2023-03-14T07:24:09;1.03;;;0.40;;
20776;SDS011;10548;47.504;8.248;2023-03-14T07:26:36;1.27;;;0.60;;
20776;SDS011;10548;47.504;8.248;2023-03-14T07:29:04;1.57;;;0.50;;
20776;SDS011;10548;47.504;8.248;2023-03-14T07:31:32;1.03;;;0.50;;
20776;SDS011;10548;47.504;8.248;2023-03-14T07:34:01;0.60;;;0.60;;
20776;SDS011;10548;47.504;8.248;2023-03-14T07:36:32;0.97;;;0.50;;
20776;SDS011;10548;47.504;8.248;2023-03-14T07:39:00;0.50;;;0.40;;
20776;SDS011;10548;47.504;8.248;2023-03-14T07:41:47;0.50;;;0.40;;
20776;SDS011;10548;47.504;8.248;2023-03-14T07:44:32;0.60;;;0.40;;
20776;SDS011;10548;47.504;8.248;2023-03-14T07:46:59;0.40;;;0.40;;
20776;SDS011;10548;47.504;8.248;2023-03-14T07:49:26;1.20;;;0.60;;
20776;SDS011;10548;47.504;8.248;2023-03-14T07:51:54;1.33;;;0.50;;
20776;SDS011;10548;47.504;8.248;2023-03-14T07:54:21;0.97;;;0.60;;
20776;SDS011;10548;47.504;8.248;2023-03-14T07:56:49;1.70;;;0.60;;
20776;SDS011;10548;47.504;8.248;2023-03-14T07:59:16;0.27;;;0.27;;
20776;SDS011;10548;47.504;8.248;2023-03-14T08:01:43;1.20;;;0.60;;
20776;SDS011;10548;47.504;8.248;2023-03-14T08:04:10;0.40;;;0.40;;
20776;SDS011;10548;47.504;8.248;2023-03-14T08:06:37;1.03;;;0.70;;
20776;SDS011;10548;47.504;8.248;2023-03-14T08:09:04;0.73;;;0.43;;
20776;SDS011;10548;47.504;8.248;2023-03-14T08:11:32;0.60;;;0.40;;
20776;SDS011;10548;47.504;8.248;2023-03-14T08:13:59;0.97;;;0.40;;
20776;SDS011;10548;47.504;8.248;2023-03-14T08:16:26;0.63;;;0.40;;
20776;SDS011;10548;47.504;8.248;2023-03-14T08:18:53;1.50;;;0.40;;
20776;SDS011;10548;47.504;8.248;2023-03-14T08:21:20;1.00;;;0.50;;
20776;SDS011;10548;47.504;8.248;2023-03-14T08:23:47;0.60;;;0.60;;
20776;SDS011;10548;47.504;8.248;2023-03-14T08:26:14;0.50;;;0.40;;
20776;SDS011;10548;47.504;8.248;2023-03-14T08:28:41;1.60;;;0.77;;
20776;SDS011;10548;47.504;8.248;2023-03-14T08:31:09;0.30;;;0.30;;
20776;SDS011;10548;47.504;8.248;2023-03-14T08:33:36;0.67;;;0.40;;
20776;SDS011;10548;47.504;8.248;2023-03-14T08:36:03;0.30;;;0.30;;
20776;SDS011;10548;47.504;8.248;2023-03-14T08:38:31;3.13;;;0.60;;
20776;SDS011;10548;47.504;8.248;2023-03-14T08:40:58;0.47;;;0.40;;
20776;SDS011;10548;47.504;8.248;2023-03-14T08:43:27;0.43;;;0.43;;
20776;SDS011;10548;47.504;8.248;2023-03-14T08:45:58;3.23;;;0.50;;
20776;SDS011;10548;47.504;8.248;2023-03-14T08:48:26;0.50;;;0.50;;
20776;SDS011;10548;47.504;8.248;2023-03-14T08:50:56;0.30;;;0.30;;
20776;SDS011;10548;47.504;8.248;2023-03-14T08:53:30;1.00;;;0.40;;
20776;SDS011;10548;47.504;8.248;2023-03-14T08:55:57;0.63;;;0.40;;
20776;SDS011;10548;47.504;8.248;2023-03-14T08:58:24;0.30;;;0.30;;
20776;SDS011;10548;47.504;8.248;2023-03-14T09:00:51;0.37;;;0.37;;
20776;SDS011;10548;47.504;8.248;2023-03-14T09:03:18;0.20;;;0.20;;
20776;SDS011;10548;47.504;8.248;2023-03-14T09:05:46;0.40;;;0.40;;
20776;SDS011;10548;47.504;8.248;2023-03-14T09:08:13;0.40;;;0.40;;
20776;SDS011;10548;47.504;8.248;2023-03-14T09:10:40;0.30;;;0.30;;
20776;SDS011;10548;47.504;8.248;2023-03-14T09:13:07;0.63;;;0.40;;
20776;SDS011;10548;47.504;8.248;2023-03-14T09:15:34;2.00;;;0.60;;
20776;SDS011;10548;47.504;8.248;2023-03-14T09:18:01;0.30;;;0.30;;
20776;SDS011;10548;47.504;8.248;2023-03-14T09:20:28;0.60;;;0.33;;
20776;SDS011;10548;47.504;8.248;2023-03-14T09:22:56;0.40;;;0.40;;
20776;SDS011;10548;47.504;8.248;2023-03-14T09:25:23;0.30;;;0.30;;
20776;SDS011;10548;47.504;8.248;2023-03-14T09:27:50;0.73;;;0.43;;
20776;SDS011;10548;47.504;8.248;2023-03-14T09:30:17;0.77;;;0.30;;
20776;SDS011;10548;47.504;8.248;2023-03-14T09:32:44;0.67;;;0.37;;
20776;SDS011;10548;47.504;8.248;2023-03-14T09:35:11;1.07;;;0.40;;
20776;SDS011;10548;47.504;8.248;2023-03-14T09:37:38;0.37;;;0.37;;
20776;SDS011;10548;47.504;8.248;2023-03-14T09:40:06;0.60;;;0.30;;
20776;SDS011;10548;47.504;8.248;2023-03-14T09:42:38;0.50;;;0.30;;
20776;SDS011;10548;47.504;8.248;2023-03-14T09:45:10;1.13;;;0.30;;
20776;SDS011;10548;47.504;8.248;2023-03-14T09:47:42;1.40;;;0.30;;
20776;SDS011;10548;47.504;8.248;2023-03-14T09:50:25;0.20;;;0.20;;
20776;SDS011;10548;47.504;8.248;2023-03-14T09:52:59;0.30;;;0.30;;
20776;SDS011;10548;47.504;8.248;2023-03-14T09:55:31;0.30;;;0.30;;
20776;SDS011;10548;47.504;8.248;2023-03-14T09:58:03;0.30;;;0.30;;
20776;SDS011;10548;47.504;8.248;2023-03-14T10:00:37;1.73;;;0.30;;
20776;SDS011;10548;47.504;8.248;2023-03-14T10:03:20;0.87;;;0.30;;
20776;SDS011;10548;47.504;8.248;2023-03-14T10:06:01;0.30;;;0.30;;
20776;SDS011;10548;47.504;8.248;2023-03-14T10:08:30;0.30;;;0.30;;
20776;SDS011;10548;47.504;8.248;2023-03-14T10:10:57;0.43;;;0.30;;
20776;SDS011;10548;47.504;8.248;2023-03-14T10:13:26;0.30;;;0.30;;
20776;SDS011;10548;47.504;8.248;2023-03-14T10:15:59;0.40;;;0.37;;
20776;SDS011;10548;47.504;8.248;2023-03-14T10:18:28;0.20;;;0.20;;
20776;SDS011;10548;47.504;8.248;2023-03-14T10:21:04;0.30;;;0.30;;
20776;SDS011;10548;47.504;8.248;2023-03-14T10:23:52;0.20;;;0.20;;
20776;SDS011;10548;47.504;8.248;2023-03-14T10:26:24;0.80;;;0.43;;
20776;SDS011;10548;47.504;8.248;2023-03-14T10:29:01;1.60;;;0.30;;
20776;SDS011;10548;47.504;8.248;2023-03-14T10:31:36;1.80;;;0.27;;
20776;SDS011;10548;47.504;8.248;2023-03-14T10:34:26;0.20;;;0.20;;
20776;SDS011;10548;47.504;8.248;2023-03-14T10:36:58;0.30;;;0.30;;
20776;SDS011;10548;47.504;8.248;2023-03-14T10:39:42;0.30;;;0.30;;
20776;SDS011;10548;47.504;8.248;2023-03-14T10:42:20;1.83;;;0.27;;
20776;SDS011;10548;47.504;8.248;2023-03-14T10:44:57;0.20;;;0.20;;
20776;SDS011;10548;47.504;8.248;2023-03-14T10:47:27;0.37;;;0.37;;
20776;SDS011;10548;47.504;8.248;2023-03-14T10:49:55;0.73;;;0.30;;
20776;SDS011;10548;47.504;8.248;2023-03-14T10:52:24;2.17;;;0.20;;
20776;SDS011;10548;47.504;8.248;2023-03-14T10:55:13;0.60;;;0.33;;
20776;SDS011;10548;47.504;8.248;2023-03-14T10:57:41;0.30;;;0.30;;
20776;SDS011;10548;47.504;8.248;2023-03-14T11:00:16;0.53;;;0.30;;
20776;SDS011;10548;47.504;8.248;2023-03-14T11:03:03;4.33;;;0.30;;
20776;SDS011;10548;47.504;8.248;2023-03-14T11:05:56;0.87;;;0.30;;
20776;SDS011;10548;47.504;8.248;2023-03-14T11:12:16;0.40;;;0.30;;
20776;SDS011;10548;47.504;8.248;2023-03-14T11:18:27;0.77;;;0.50;;
20776;SDS011;10548;47.504;8.248;2023-03-14T11:21:08;0.40;;;0.40;;
20776;SDS011;10548;47.504;8.248;2023-03-14T11:23:56;0.53;;;0.37;;
20776;SDS011;10548;47.504;8.248;2023-03-14T11:27:00;0.33;;;0.33;;
20776;SDS011;10548;47.504;8.248;2023-03-14T11:35:47;1.33;;;0.30;;
20776;SDS011;10548;47.504;8.248;2023-03-14T11:38:48;1.17;;;0.30;;
20776;SDS011;10548;47.504;8.248;2023-03-14T11:41:40;0.20;;;0.20;;
20776;SDS011;10548;47.504;8.248;2023-03-14T11:44:34;0.50;;;0.40;;
20776;SDS011;10548;47.504;8.248;2023-03-14T11:50:16;0.33;;;0.23;;
20776;SDS011;10548;47.504;8.248;2023-03-14T11:54:16;0.30;;;0.30;;
20776;SDS011;10548;47.504;8.248;2023-03-14T11:56:04;0.50;;;0.30;;
20776;SDS011;10548;47.504;8.248;2023-03-14T11:58:42;0.40;;;0.40;;
20776;SDS011;10548;47.504;8.248;2023-03-14T12:01:18;0.20;;;0.20;;
20776;SDS011;10548;47.504;8.248;2023-03-14T12:03:54;0.60;;;0.40;;
20776;SDS011;10548;47.504;8.248;2023-03-14T12:06:28;0.40;;;0.40;;
20776;SDS011;10548;47.504;8.248;2023-03-14T12:09:16;0.33;;;0.33;;
20776;SDS011;10548;47.504;8.248;2023-03-14T12:11:47;0.93;;;0.30;;
20776;SDS011;10548;47.504;8.248;2023-03-14T12:14:30;0.93;;;0.37;;
20776;SDS011;10548;47.504;8.248;2023-03-14T12:20:17;1.53;;;0.50;;
20776;SDS011;10548;47.504;8.248;2023-03-14T12:22:48;1.87;;;0.60;;
20776;SDS011;10548;47.504;8.248;2023-03-14T12:25:19;0.47;;;0.47;;
20776;SDS011;10548;47.504;8.248;2023-03-14T17:04:26;0.60;;;0.60;;
20776;SDS011;10548;47.504;8.248;2023-03-14T17:06:53;2.37;;;0.90;;
20776;SDS011;10548;47.504;8.248;2023-03-14T17:09:20;0.77;;;0.60;;
20776;SDS011;10548;47.504;8.248;2023-03-14T17:11:47;2.17;;;0.70;;
20776;SDS011;10548;47.504;8.248;2023-03-14T17:14:14;1.23;;;0.70;;
20776;SDS011;10548;47.504;8.248;2023-03-14T17:16:42;2.20;;;0.70;;
20776;SDS011;10548;47.504;8.248;2023-03-14T17:19:09;2.00;;;0.60;;
20776;SDS011;10548;47.504;8.248;2023-03-14T17:21:36;1.20;;;0.60;;
20776;SDS011;10548;47.504;8.248;2023-03-14T17:24:03;0.90;;;0.50;;
20776;SDS011;10548;47.504;8.248;2023-03-14T17:26:30;3.63;;;0.77;;
20776;SDS011;10548;47.504;8.248;2023-03-14T17:28:57;1.50;;;0.60;;
20776;SDS011;10548;47.504;8.248;2023-03-14T17:31:24;1.23;;;0.60;;
20776;SDS011;10548;47.504;8.248;2023-03-14T17:33:51;2.23;;;0.70;;
20776;SDS011;10548;47.504;8.248;2023-03-14T17:36:20;2.00;;;0.63;;
20776;SDS011;10548;47.504;8.248;2023-03-14T17:38:54;1.20;;;0.60;;
20776;SDS011;10548;47.504;8.248;2023-03-14T17:41:23;2.77;;;0.70;;
20776;SDS011;10548;47.504;8.248;2023-03-14T17:43:50;2.83;;;1.73;;
20776;SDS011;10548;47.504;8.248;2023-03-14T17:46:18;1.70;;;0.63;;
20776;SDS011;10548;47.504;8.248;2023-03-14T17:48:46;5.20;;;0.97;;
20776;SDS011;10548;47.504;8.248;2023-03-14T17:51:14;3.03;;;0.90;;
20776;SDS011;10548;47.504;8.248;2023-03-14T17:53:42;0.70;;;0.63;;
20776;SDS011;10548;47.504;8.248;2023-03-14T17:56:09;1.27;;;0.73;;
20776;SDS011;10548;47.504;8.248;2023-03-14T17:58:37;2.10;;;0.73;;
20776;SDS011;10548;47.504;8.248;2023-03-14T18:01:11;2.53;;;0.70;;
20776;SDS011;10548;47.504;8.248;2023-03-14T18:03:40;2.50;;;0.97;;
20776;SDS011;10548;47.504;8.248;2023-03-14T18:06:08;1.13;;;0.60;;
20776;SDS011;10548;47.504;8.248;2023-03-14T18:08:37;1.83;;;0.60;;
20776;SDS011;10548;47.504;8.248;2023-03-14T18:11:05;4.10;;;0.70;;
20776;SDS011;10548;47.504;8.248;2023-03-14T18:13:33;1.03;;;0.50;;
20776;SDS011;10548;47.504;8.248;2023-03-14T18:16:03;4.37;;;0.90;;
20776;SDS011;10548;47.504;8.248;2023-03-14T18:18:32;1.87;;;0.80;;
20776;SDS011;10548;47.504;8.248;2023-03-14T18:21:00;4.30;;;0.80;;
20776;SDS011;10548;47.504;8.248;2023-03-14T18:23:27;2.03;;;0.90;;
20776;SDS011;10548;47.504;8.248;2023-03-14T18:25:54;4.23;;;0.70;;
20776;SDS011;10548;47.504;8.248;2023-03-14T18:28:23;1.73;;;0.70;;
20776;SDS011;10548;47.504;8.248;2023-03-14T18:30:50;1.50;;;0.53;;
20776;SDS011;10548;47.504;8.248;2023-03-14T18:33:18;3.00;;;0.60;;
20776;SDS011;10548;47.504;8.248;2023-03-14T18:35:48;3.27;;;1.40;;
20776;SDS011;10548;47.504;8.248;2023-03-14T18:38:19;3.77;;;1.13;;
20776;SDS011;10548;47.504;8.248;2023-03-14T18:40:46;2.90;;;0.70;;
20776;SDS011;10548;47.504;8.248;2023-03-14T18:43:13;2.40;;;0.77;;
20776;SDS011;10548;47.504;8.248;2023-03-14T18:45:41;2.67;;;0.70;;
20776;SDS011;10548;47.504;8.248;2023-03-14T18:48:08;1.57;;;0.50;;
20776;SDS011;10548;47.504;8.248;2023-03-14T18:50:35;0.80;;;0.50;;
20776;SDS011;10548;47.504;8.248;2023-03-14T18:53:02;2.07;;;0.70;;
20776;SDS011;10548;47.504;8.248;2023-03-14T18:55:29;2.23;;;0.70;;
20776;SDS011;10548;47.504;8.248;2023-03-14T18:57:57;3.57;;;0.70;;
20776;SDS011;10548;47.504;8.248;2023-03-14T19:00:24;3.67;;;0.83;;
20776;SDS011;10548;47.504;8.248;2023-03-14T19:02:53;2.07;;;0.80;;
20776;SDS011;10548;47.504;8.248;2023-03-14T19:05:20;1.30;;;0.73;;
20776;SDS011;10548;47.504;8.248;2023-03-14T19:07:47;2.67;;;0.97;;
20776;SDS011;10548;47.504;8.248;2023-03-14T19:10:15;3.57;;;0.90;;
20776;SDS011;10548;47.504;8.248;2023-03-14T19:12:42;13.67;;;1.47;;
20776;SDS011;10548;47.504;8.248;2023-03-14T19:15:09;3.13;;;0.80;;
20776;SDS011;10548;47.504;8.248;2023-03-14T19:17:37;2.37;;;1.07;;
20776;SDS011;10548;47.504;8.248;2023-03-14T19:20:08;6.33;;;1.10;;
20776;SDS011;10548;47.504;8.248;2023-03-14T19:22:41;2.87;;;0.87;;
20776;SDS011;10548;47.504;8.248;2023-03-14T19:25:09;2.47;;;0.90;;
20776;SDS011;10548;47.504;8.248;2023-03-14T19:27:36;2.10;;;0.97;;
20776;SDS011;10548;47.504;8.248;2023-03-14T19:30:04;2.93;;;1.00;;
20776;SDS011;10548;47.504;8.248;2023-03-14T19:32:32;1.77;;;0.90;;
20776;SDS011;10548;47.504;8.248;2023-03-14T19:34:59;1.97;;;0.80;;
20776;SDS011;10548;47.504;8.248;2023-03-14T19:37:26;6.53;;;1.23;;
20776;SDS011;10548;47.504;8.248;2023-03-14T19:39:54;1.87;;;0.80;;
20776;SDS011;10548;47.504;8.248;2023-03-14T19:42:21;3.10;;;1.00;;
20776;SDS011;10548;47.504;8.248;2023-03-14T19:44:48;4.60;;;1.10;;
20776;SDS011;10548;47.504;8.248;2023-03-14T19:47:18;4.47;;;1.07;;
20776;SDS011;10548;47.504;8.248;2023-03-14T19:49:50;4.07;;;1.67;;
20776;SDS011;10548;47.504;8.248;2023-03-14T19:52:17;3.63;;;1.17;;
20776;SDS011;10548;47.504;8.248;2023-03-14T19:54:52;1.63;;;0.90;;
20776;SDS011;10548;47.504;8.248;2023-03-14T19:57:20;4.17;;;1.20;;
20776;SDS011;10548;47.504;8.248;2023-03-14T19:59:47;4.37;;;1.03;;
20776;SDS011;10548;47.504;8.248;2023-03-14T20:02:14;3.20;;;1.00;;
20776;SDS011;10548;47.504;8.248;2023-03-14T20:04:42;3.60;;;1.23;;
20776;SDS011;10548;47.504;8.248;2023-03-14T20:07:12;3.67;;;1.30;;
20776;SDS011;10548;47.504;8.248;2023-03-14T20:09:40;1.90;;;0.90;;
20776;SDS011;10548;47.504;8.248;2023-03-14T20:12:07;6.03;;;1.07;;
20776;SDS011;10548;47.504;8.248;2023-03-14T20:14:35;3.87;;;1.00;;
20776;SDS011;10548;47.504;8.248;2023-03-14T20:17:02;4.67;;;1.20;;
20776;SDS011;10548;47.504;8.248;2023-03-14T20:19:29;4.07;;;1.00;;
20776;SDS011;10548;47.504;8.248;2023-03-14T20:21:56;6.07;;;1.33;;
20776;SDS011;10548;47.504;8.248;2023-03-14T20:24:26;4.93;;;1.00;;
20776;SDS011;10548;47.504;8.248;2023-03-14T20:26:53;2.63;;;1.00;;
20776;SDS011;10548;47.504;8.248;2023-03-14T20:29:20;6.30;;;1.27;;
20776;SDS011;10548;47.504;8.248;2023-03-14T20:31:50;2.57;;;1.00;;
20776;SDS011;10548;47.504;8.248;2023-03-14T20:34:17;4.17;;;1.40;;
20776;SDS011;10548;47.504;8.248;2023-03-14T20:36:44;4.50;;;1.10;;